createdAt,value
2022-08-16T00:02:34.376Z,13.20
2022-08-16T00:05:04.100Z,12.80
2022-08-16T00:07:32.746Z,19.30
2022-08-16T00:10:02.088Z,13.40
2022-08-16T00:12:32.837Z,18.23
2022-08-16T00:15:11.646Z,13.80
2022-08-16T00:17:56.258Z,12.60
2022-08-16T00:20:26.293Z,18.83
2022-08-16T00:22:55.217Z,15.47
2022-08-16T00:25:49.621Z,12.70
2022-08-16T00:28:15.875Z,11.13
2022-08-16T00:30:44.907Z,12.63
2022-08-16T00:33:13.576Z,13.30
2022-08-16T00:35:42.329Z,15.33
2022-08-16T00:38:41.091Z,19.90
2022-08-16T00:41:01.355Z,14.50
2022-08-16T00:43:42.480Z,14.93
2022-08-16T00:46:33.274Z,19.90
2022-08-16T00:49:06.911Z,15.13
2022-08-16T00:51:47.112Z,13.77
2022-08-16T00:54:26.119Z,22.33
2022-08-16T00:56:59.670Z,14.33
2022-08-16T00:59:34.456Z,19.73
2022-08-16T01:02:30.795Z,15.47
2022-08-16T01:05:10.964Z,16.13
2022-08-16T01:07:50.749Z,26.17
2022-08-16T01:10:21.521Z,17.37
2022-08-16T01:13:04.560Z,17.27
2022-08-16T01:15:37.623Z,12.90
2022-08-16T01:18:38.853Z,18.87
2022-08-16T01:21:15.336Z,12.27
2022-08-16T01:24:01.309Z,14.83
2022-08-16T01:26:35.551Z,17.80
2022-08-16T01:29:10.273Z,15.30
2022-08-16T01:31:42.870Z,12.70
2022-08-16T01:34:25.376Z,17.10
2022-08-16T01:37:00.520Z,12.20
2022-08-16T01:39:30.193Z,14.40
2022-08-16T01:42:12.289Z,16.97
2022-08-16T01:44:43.409Z,18.33
2022-08-16T01:47:12.220Z,19.00
2022-08-16T01:50:42.937Z,14.17
2022-08-16T01:52:31.702Z,16.90
2022-08-16T01:55:01.439Z,14.80
2022-08-16T01:57:32.517Z,17.20
2022-08-16T02:00:18.899Z,17.60
2022-08-16T02:02:52.504Z,17.27
2022-08-16T02:05:23.618Z,18.70
2022-08-16T02:07:53.612Z,16.73
2022-08-16T02:10:24.076Z,15.50
2022-08-16T02:13:00.750Z,15.90
2022-08-16T02:15:37.894Z,17.20
2022-08-16T02:18:12.535Z,18.70
2022-08-16T02:20:45.570Z,21.53
2022-08-16T02:23:14.347Z,14.10
2022-08-16T02:25:50.943Z,18.93
2022-08-16T02:28:24.822Z,14.67
2022-08-16T02:30:55.688Z,16.90
2022-08-16T02:33:43.537Z,16.10
2022-08-16T02:36:49.766Z,15.27
2022-08-16T02:39:05.353Z,17.30
2022-08-16T02:41:34.336Z,17.33
2022-08-16T02:44:11.276Z,18.60
2022-08-16T02:46:49.915Z,15.90
2022-08-16T02:49:32.223Z,15.93
2022-08-16T02:52:24.488Z,21.57
2022-08-16T02:54:57.737Z,17.30
2022-08-16T02:57:28.104Z,17.33
2022-08-16T02:59:58.388Z,22.10
2022-08-16T03:02:31.922Z,21.80
2022-08-16T03:05:00.700Z,15.03
2022-08-16T03:07:37.164Z,21.90
2022-08-16T03:10:07.677Z,17.97
2022-08-16T03:12:36.735Z,18.43
2022-08-16T03:15:25.973Z,25.43
2022-08-16T03:17:56.925Z,17.90
2022-08-16T03:20:32.529Z,17.30
2022-08-16T03:23:02.834Z,23.60
2022-08-16T03:25:44.187Z,17.83
2022-08-16T03:28:13.550Z,18.60
2022-08-16T03:30:47.573Z,19.13
2022-08-16T03:33:16.448Z,16.17
2022-08-16T03:35:45.268Z,18.60
2022-08-16T03:38:32.587Z,20.50
2022-08-16T03:41:05.389Z,16.53
2022-08-16T03:43:52.004Z,18.97
2022-08-16T03:46:44.194Z,22.83
2022-08-16T03:49:12.461Z,22.37
2022-08-16T03:51:42.783Z,19.23
2022-08-16T03:54:12.587Z,17.70
2022-08-16T03:56:57.053Z,20.33
2022-08-16T03:59:29.472Z,20.90
2022-08-16T04:02:00.858Z,20.27
2022-08-16T04:04:32.563Z,26.57
2022-08-16T04:07:04.122Z,26.23
2022-08-16T04:09:35.570Z,14.60
2022-08-16T04:12:11.169Z,20.10
2022-08-16T04:14:53.643Z,19.20
2022-08-16T04:17:24.565Z,23.53
2022-08-16T04:19:58.258Z,18.30
2022-08-16T04:22:29.475Z,14.37
2022-08-16T04:24:59.425Z,17.60
2022-08-16T04:27:28.807Z,19.43
2022-08-16T04:30:02.989Z,13.57
2022-08-16T04:32:33.603Z,19.53
2022-08-16T04:35:09.379Z,18.00
2022-08-16T04:37:42.599Z,16.90
2022-08-16T04:40:20.657Z,20.43
2022-08-16T04:42:54.836Z,14.17
2022-08-16T04:45:35.890Z,19.63
2022-08-16T04:48:07.272Z,14.30
2022-08-16T04:50:37.849Z,22.90
2022-08-16T04:53:12.106Z,15.17
2022-08-16T04:55:44.628Z,15.90
2022-08-16T04:58:44.920Z,12.63
2022-08-16T05:01:02.573Z,19.13
2022-08-16T05:03:41.715Z,15.70
2022-08-16T05:06:11.107Z,12.53
2022-08-16T05:08:39.692Z,10.97
2022-08-16T05:11:16.804Z,11.40
2022-08-16T05:13:48.513Z,11.53
2022-08-16T05:16:23.284Z,10.50
2022-08-16T05:18:56.598Z,13.10
2022-08-16T05:21:26.887Z,7.93
2022-08-16T05:24:00.152Z,6.37
2022-08-16T05:26:30.733Z,18.47
2022-08-16T05:29:03.690Z,6.33
2022-08-16T05:31:32.998Z,6.57
2022-08-16T05:34:05.878Z,6.93
2022-08-16T05:36:49.287Z,5.53
2022-08-16T05:39:20.898Z,10.60
2022-08-16T05:41:52.150Z,12.40
2022-08-16T05:44:24.844Z,5.43
2022-08-16T05:46:55.862Z,5.90
2022-08-16T05:49:39.354Z,5.50
2022-08-16T05:52:11.330Z,8.60
2022-08-16T05:54:47.579Z,8.70
2022-08-16T05:57:17.433Z,15.93
2022-08-16T05:59:47.400Z,7.33
2022-08-16T06:02:21.987Z,9.47
2022-08-16T06:04:58.899Z,8.10
2022-08-16T06:07:27.502Z,5.77
2022-08-16T06:10:00.778Z,8.20
2022-08-16T06:12:30.034Z,5.43
2022-08-16T06:15:04.194Z,9.23
2022-08-16T06:17:42.951Z,4.37
2022-08-16T06:20:18.410Z,4.67
2022-08-16T06:22:57.538Z,7.43
2022-08-16T06:25:36.353Z,6.83
2022-08-16T06:28:09.501Z,5.37
2022-08-16T06:30:43.458Z,8.43
2022-08-16T06:33:13.149Z,7.30
2022-08-16T06:35:50.262Z,8.10
2022-08-16T06:38:33.670Z,6.07
2022-08-16T06:41:05.447Z,7.10
2022-08-16T06:43:35.633Z,6.10
2022-08-16T06:46:05.885Z,5.27
2022-08-16T06:48:43.131Z,3.90
2022-08-16T06:51:14.895Z,4.60
2022-08-16T06:53:43.503Z,9.33
2022-08-16T06:56:14.512Z,4.70
2022-08-16T06:58:52.611Z,4.70
2022-08-16T07:01:43.353Z,5.37
2022-08-16T07:04:12.022Z,6.23
2022-08-16T07:06:43.585Z,5.70
2022-08-16T07:09:15.936Z,5.00
2022-08-16T07:11:46.178Z,6.13
2022-08-16T07:14:25.882Z,4.33
2022-08-16T07:16:58.112Z,7.03
2022-08-16T07:20:02.610Z,5.37
2022-08-16T07:22:37.363Z,5.10
2022-08-16T07:25:13.027Z,8.20
2022-08-16T07:27:41.882Z,8.80
2022-08-16T07:30:38.015Z,6.70
2022-08-16T07:33:04.595Z,5.23
2022-08-16T07:35:36.111Z,4.23
2022-08-16T07:38:07.442Z,5.83
2022-08-16T07:41:00.224Z,7.23
2022-08-16T07:43:29.323Z,4.60
2022-08-16T07:45:59.477Z,6.60
2022-08-16T07:48:30.161Z,8.30
2022-08-16T07:51:00.852Z,5.57
2022-08-16T07:53:35.145Z,5.37
2022-08-16T07:56:12.439Z,9.97
2022-08-16T07:58:43.376Z,8.47
2022-08-16T08:01:15.197Z,8.83
2022-08-16T08:03:49.132Z,12.47
2022-08-16T08:06:18.992Z,6.50
2022-08-16T08:08:51.668Z,6.80
2022-08-16T08:11:23.775Z,6.67
2022-08-16T08:13:53.840Z,7.93
2022-08-16T08:16:30.136Z,5.70
2022-08-16T08:19:02.378Z,8.80
2022-08-16T08:21:58.551Z,8.20
2022-08-16T08:24:31.724Z,8.37
2022-08-16T08:27:03.878Z,5.53
2022-08-16T08:29:37.086Z,9.47
2022-08-16T08:32:58.311Z,6.00
2022-08-16T08:35:03.237Z,5.10
2022-08-16T08:37:33.439Z,5.50
2022-08-16T08:40:24.601Z,6.20
2022-08-16T08:43:00.154Z,5.33
2022-08-16T08:45:47.983Z,7.93
2022-08-16T08:48:32.891Z,4.90
2022-08-16T08:51:03.485Z,7.60
2022-08-16T08:53:32.688Z,6.07
2022-08-16T08:56:23.292Z,4.80
2022-08-16T08:58:54.353Z,6.13
2022-08-16T09:01:31.804Z,8.07
2022-08-16T09:04:05.896Z,4.90
2022-08-16T09:06:34.905Z,5.37
2022-08-16T09:09:06.297Z,5.90
2022-08-16T09:11:40.971Z,4.77
2022-08-16T09:14:23.935Z,5.30
2022-08-16T09:17:02.881Z,4.80
2022-08-16T09:19:37.254Z,6.47
2022-08-16T09:22:19.731Z,5.87
2022-08-16T09:24:52.427Z,5.17
2022-08-16T09:27:25.351Z,8.47
2022-08-16T09:30:00.730Z,5.60
2022-08-16T09:32:46.974Z,5.30
2022-08-16T09:35:15.954Z,5.53
2022-08-16T09:37:44.541Z,4.43
2022-08-16T09:40:33.331Z,4.00
2022-08-16T09:43:44.711Z,7.93
2022-08-16T09:46:49.098Z,6.53
2022-08-16T09:48:58.462Z,5.40
2022-08-16T09:51:37.384Z,6.70
2022-08-16T09:54:09.447Z,5.73
2022-08-16T09:56:52.489Z,4.30
2022-08-16T09:59:25.542Z,7.53
2022-08-16T10:01:59.579Z,6.23
2022-08-16T10:04:31.180Z,12.33
2022-08-16T10:07:14.746Z,4.13
2022-08-16T10:09:54.790Z,9.80
2022-08-16T10:12:43.303Z,4.37
2022-08-16T10:15:15.213Z,4.27
2022-08-16T10:18:01.454Z,3.80
2022-08-16T10:20:34.512Z,4.30
2022-08-16T10:23:07.976Z,13.50
2022-08-16T10:27:17.249Z,8.07
2022-08-16T10:28:32.313Z,5.47
2022-08-16T10:31:14.668Z,5.30
2022-08-16T10:34:01.568Z,7.37
2022-08-16T10:36:38.150Z,4.97
2022-08-16T10:39:08.564Z,3.37
2022-08-16T10:41:37.553Z,4.40
2022-08-16T10:44:09.389Z,10.83
2022-08-16T10:46:42.231Z,4.73
2022-08-16T10:49:11.910Z,6.53
2022-08-16T10:52:01.824Z,6.30
2022-08-16T10:54:30.597Z,4.37
2022-08-16T10:57:00.835Z,10.03
2022-08-16T10:59:45.803Z,8.83
2022-08-16T11:03:37.515Z,6.00
2022-08-16T11:05:16.344Z,7.93
2022-08-16T11:07:52.524Z,6.57
2022-08-16T11:19:13.146Z,4.60
2022-08-16T11:24:41.452Z,7.43
2022-08-16T11:27:23.579Z,5.50
2022-08-16T11:29:55.142Z,7.60
2022-08-16T11:32:31.181Z,4.40
2022-08-16T11:35:11.003Z,4.73
2022-08-16T11:40:40.677Z,7.17
2022-08-16T11:43:13.132Z,8.40
2022-08-16T11:45:53.818Z,3.47
2022-08-16T11:48:24.632Z,7.70
2022-08-16T11:50:55.317Z,3.93
2022-08-16T11:53:24.840Z,4.20
2022-08-16T11:55:55.209Z,4.20
2022-08-16T11:58:25.392Z,3.63
2022-08-16T12:00:56.121Z,7.23
2022-08-16T12:03:34.288Z,5.53
2022-08-16T12:06:10.600Z,5.00
2022-08-16T12:08:42.631Z,8.23
2022-08-16T12:11:12.474Z,5.17
2022-08-16T12:13:42.058Z,4.07
2022-08-16T12:16:11.445Z,8.30
2022-08-16T12:21:21.554Z,10.10
2022-08-16T12:23:51.261Z,3.30
2022-08-16T12:26:19.811Z,4.07
2022-08-16T12:28:55.848Z,4.27
2022-08-16T12:31:28.757Z,9.73
2022-08-16T12:33:58.494Z,5.40
2022-08-16T12:36:29.678Z,7.97
2022-08-16T12:38:59.300Z,4.67
2022-08-16T12:41:28.181Z,7.40
2022-08-16T12:44:00.962Z,5.70
2022-08-16T12:46:31.009Z,8.90
2022-08-16T12:48:59.750Z,4.27
2022-08-16T12:51:59.260Z,6.43
2022-08-16T12:54:22.160Z,14.13
2022-08-16T12:56:50.945Z,8.47
2022-08-16T12:59:21.675Z,5.50
2022-08-16T13:01:58.239Z,4.47
2022-08-16T13:04:27.965Z,3.80
2022-08-16T13:07:08.286Z,8.23
2022-08-16T13:09:47.836Z,10.23
2022-08-16T13:12:20.034Z,3.60
2022-08-16T13:14:50.734Z,3.90
2022-08-16T13:17:23.619Z,3.83
2022-08-16T13:20:11.759Z,8.20
2022-08-16T13:22:45.652Z,8.90
2022-08-16T13:25:21.330Z,6.40
2022-08-16T13:28:01.624Z,9.07
2022-08-16T13:30:42.518Z,4.87
2022-08-16T13:33:14.821Z,4.70
2022-08-16T13:35:55.723Z,8.20
2022-08-16T13:38:29.052Z,4.93
2022-08-16T13:41:02.169Z,5.00
2022-08-16T13:43:32.782Z,7.70
2022-08-16T13:46:04.203Z,6.93
2022-08-16T13:48:42.673Z,8.23
2022-08-16T13:51:17.088Z,9.10
2022-08-16T13:53:54.384Z,5.30
2022-08-16T13:56:37.267Z,3.87
2022-08-16T13:59:13.953Z,5.73
2022-08-16T14:01:54.460Z,3.53
2022-08-16T14:04:26.508Z,6.37
2022-08-16T14:06:56.694Z,4.40
2022-08-16T14:09:28.346Z,4.70
2022-08-16T14:11:57.607Z,14.80
2022-08-16T14:14:28.890Z,3.60
2022-08-16T14:16:59.162Z,7.70
2022-08-16T14:19:29.464Z,4.67
2022-08-16T14:22:14.810Z,6.20
2022-08-16T14:24:51.276Z,3.53
2022-08-16T14:27:22.093Z,4.20
2022-08-16T14:29:52.302Z,10.43
2022-08-16T14:32:32.630Z,9.40
2022-08-16T14:35:07.623Z,10.43
2022-08-16T14:37:37.034Z,3.50
2022-08-16T14:40:09.408Z,9.83
2022-08-16T14:42:38.993Z,8.73
2022-08-16T14:45:09.564Z,6.37
2022-08-16T14:47:38.542Z,5.17
2022-08-16T14:50:10.215Z,4.33
2022-08-16T14:52:55.071Z,4.93
2022-08-16T14:55:27.688Z,5.50
2022-08-16T14:57:56.506Z,6.03
2022-08-16T15:00:33.832Z,4.70
2022-08-16T15:03:06.047Z,5.23
2022-08-16T15:05:35.250Z,7.47
2022-08-16T15:08:04.284Z,4.00
2022-08-16T15:10:34.279Z,6.83
2022-08-16T15:13:09.673Z,4.17
2022-08-16T15:15:38.893Z,3.63
2022-08-16T15:18:11.974Z,4.33
2022-08-16T15:20:42.109Z,6.10
2022-08-16T15:23:11.999Z,5.37
2022-08-16T15:25:47.049Z,3.80
2022-08-16T15:28:31.946Z,6.23
2022-08-16T15:31:03.235Z,3.40
2022-08-16T15:33:35.717Z,4.23
2022-08-16T15:36:08.712Z,7.40
2022-08-16T15:38:57.222Z,3.73
2022-08-16T15:42:01.077Z,8.43
2022-08-16T15:44:44.770Z,7.93
2022-08-16T15:47:25.653Z,8.33
2022-08-16T15:49:56.008Z,10.57
2022-08-16T15:52:29.847Z,4.70
2022-08-16T15:55:00.201Z,7.87
2022-08-16T15:57:41.384Z,14.17
2022-08-16T16:00:15.314Z,3.80
2022-08-16T16:02:44.304Z,5.50
2022-08-16T16:05:14.015Z,3.90
2022-08-16T16:07:56.791Z,4.50
2022-08-16T16:10:32.975Z,6.43
2022-08-16T16:13:05.314Z,6.03
2022-08-16T16:15:39.455Z,4.73
2022-08-16T16:18:09.973Z,6.17
2022-08-16T16:20:39.768Z,6.43
2022-08-16T16:23:11.102Z,3.70
2022-08-16T16:25:44.109Z,3.53
2022-08-16T16:29:05.765Z,5.70
2022-08-16T16:31:08.964Z,5.90
2022-08-16T16:33:39.870Z,4.93
2022-08-16T16:36:10.060Z,11.07
2022-08-16T16:38:41.969Z,4.07
2022-08-16T16:41:11.783Z,7.90
2022-08-16T16:43:44.844Z,5.57
2022-08-16T16:46:40.760Z,4.33
2022-08-16T16:49:06.720Z,3.80
2022-08-16T16:51:40.681Z,7.07
2022-08-16T16:54:13.055Z,3.60
2022-08-16T16:56:49.517Z,5.60
2022-08-16T16:59:20.008Z,7.40
2022-08-16T17:01:59.508Z,6.00
2022-08-16T17:04:39.171Z,3.83
2022-08-16T17:07:10.575Z,5.00
2022-08-16T17:09:40.507Z,4.40
2022-08-16T17:12:10.015Z,6.23
2022-08-16T17:14:44.569Z,5.27
2022-08-16T17:17:14.623Z,4.10
2022-08-16T17:19:44.914Z,9.50
2022-08-16T17:22:15.654Z,3.10
2022-08-16T17:24:50.963Z,5.13
2022-08-16T17:27:32.740Z,5.03
2022-08-16T17:30:15.685Z,8.97
2022-08-16T17:32:50.367Z,4.90
2022-08-16T17:35:33.912Z,12.07
2022-08-16T17:39:28.236Z,4.23
2022-08-16T17:40:58.677Z,4.93
2022-08-16T17:43:31.017Z,4.50
2022-08-16T17:46:01.774Z,5.07
2022-08-16T17:48:32.133Z,7.93
2022-08-16T17:51:01.218Z,5.23
2022-08-16T17:53:29.831Z,6.23
2022-08-16T17:55:58.296Z,7.73
2022-08-16T17:58:27.193Z,10.50
2022-08-16T18:00:57.961Z,10.03
2022-08-16T18:04:07.520Z,4.30
2022-08-16T18:06:18.996Z,10.73
2022-08-16T18:08:48.558Z,7.13
2022-08-16T18:11:25.765Z,8.27
2022-08-16T18:13:55.763Z,15.93
2022-08-16T18:16:24.534Z,10.80
2022-08-16T18:18:54.455Z,7.30
2022-08-16T18:21:41.368Z,6.17
2022-08-16T18:24:11.053Z,11.60
2022-08-16T18:26:40.167Z,10.83
2022-08-16T18:29:09.038Z,16.33
2022-08-16T18:31:37.825Z,5.57
2022-08-16T18:34:08.143Z,13.17
2022-08-16T18:36:37.160Z,4.20
2022-08-16T18:39:06.385Z,9.47
2022-08-16T18:41:37.212Z,5.20
2022-08-16T18:44:26.849Z,9.63
2022-08-16T18:46:57.112Z,12.13
2022-08-16T18:49:27.129Z,9.33
2022-08-16T18:51:58.478Z,6.37
2022-08-16T18:54:28.133Z,12.20
2022-08-16T18:56:58.305Z,4.47
2022-08-16T18:59:28.855Z,4.93
2022-08-16T19:02:00.121Z,9.80
2022-08-16T19:04:55.326Z,10.03
2022-08-16T19:07:30.809Z,10.37
2022-08-16T19:10:00.791Z,6.63
2022-08-16T19:12:38.206Z,6.67
2022-08-16T19:15:22.174Z,11.80
2022-08-16T19:17:50.970Z,14.53
2022-08-16T19:20:24.402Z,12.63
2022-08-16T19:23:05.270Z,8.10
2022-08-16T19:25:52.888Z,10.20
2022-08-16T19:29:00.093Z,8.53
2022-08-16T19:31:46.290Z,19.67
2022-08-16T19:34:18.363Z,10.20
2022-08-16T19:36:48.945Z,6.90
2022-08-16T19:39:18.035Z,9.03
2022-08-16T19:41:52.959Z,6.83
2022-08-16T19:44:23.119Z,8.87
2022-08-16T19:46:52.104Z,7.90
2022-08-16T19:49:21.146Z,7.37
2022-08-16T19:51:52.221Z,4.30
2022-08-16T19:54:20.870Z,16.33
2022-08-16T19:56:49.671Z,5.90
2022-08-16T19:59:20.946Z,8.80
2022-08-16T20:01:52.806Z,8.80
2022-08-16T20:04:22.619Z,8.03
2022-08-16T20:06:53.759Z,9.13
2022-08-16T20:09:23.395Z,6.87
2022-08-16T20:11:54.193Z,12.63
2022-08-16T20:14:26.297Z,6.00
2022-08-16T20:16:57.357Z,4.97
2022-08-16T20:19:27.817Z,5.43
2022-08-16T20:22:03.068Z,8.37
2022-08-16T20:24:35.069Z,8.27
2022-08-16T20:27:06.093Z,5.50
2022-08-16T20:29:39.107Z,7.70
2022-08-16T20:32:09.100Z,5.23
2022-08-16T20:34:38.340Z,4.90
2022-08-16T20:37:12.624Z,18.97
2022-08-16T20:39:44.491Z,6.50
2022-08-16T20:42:14.768Z,10.63
2022-08-16T20:44:45.062Z,4.70
2022-08-16T20:47:14.909Z,4.87
2022-08-16T20:49:43.686Z,5.00
2022-08-16T20:52:17.852Z,10.80
2022-08-16T20:54:48.851Z,3.57
2022-08-16T20:57:18.900Z,4.53
2022-08-16T20:59:50.469Z,6.70
2022-08-16T21:02:26.710Z,6.10
2022-08-16T21:04:55.758Z,4.60
2022-08-16T21:07:26.521Z,3.80
2022-08-16T21:09:55.471Z,6.10
2022-08-16T21:12:24.871Z,9.83
2022-08-16T21:14:57.829Z,9.20
2022-08-16T21:17:26.352Z,5.43
2022-08-16T21:19:54.924Z,4.80
2022-08-16T21:22:25.123Z,6.27
2022-08-16T21:24:55.145Z,5.80
2022-08-16T21:27:24.227Z,7.60
2022-08-16T21:29:55.759Z,7.67
2022-08-16T21:32:35.174Z,8.93
2022-08-16T21:35:10.388Z,5.73
2022-08-16T21:37:40.396Z,4.63
2022-08-16T21:40:10.833Z,5.07
2022-08-16T21:42:42.046Z,10.77
2022-08-16T21:45:14.501Z,4.60
2022-08-16T21:47:44.573Z,4.33
2022-08-16T21:50:16.307Z,7.63
2022-08-16T21:52:46.466Z,7.63
2022-08-16T21:55:15.476Z,8.27
2022-08-16T21:57:44.188Z,4.13
2022-08-16T22:00:15.076Z,5.13
2022-08-16T22:02:47.880Z,4.80
2022-08-16T22:05:19.604Z,6.63
2022-08-16T22:07:49.843Z,5.57
2022-08-16T22:11:04.206Z,5.70
2022-08-16T22:13:15.433Z,10.40
2022-08-16T22:15:46.484Z,4.80
2022-08-16T22:18:15.753Z,9.73
2022-08-16T22:20:45.172Z,6.10
2022-08-16T22:23:18.209Z,4.27
2022-08-16T22:25:48.620Z,10.63
2022-08-16T22:28:20.559Z,5.33
2022-08-16T22:30:50.698Z,6.67
2022-08-16T22:33:21.729Z,4.47
2022-08-16T22:35:52.404Z,4.23
2022-08-16T22:38:55.639Z,12.30
2022-08-16T22:41:12.386Z,6.17
2022-08-16T22:43:41.013Z,7.37
2022-08-16T22:46:09.701Z,9.43
2022-08-16T22:48:39.468Z,8.37
2022-08-16T22:51:11.962Z,5.80
2022-08-16T22:53:45.192Z,5.37
2022-08-16T22:56:15.656Z,6.90
2022-08-16T22:58:44.549Z,3.93
2022-08-16T23:01:13.859Z,5.43
2022-08-16T23:03:43.676Z,8.20
2022-08-16T23:06:13.262Z,9.90
2022-08-16T23:08:44.098Z,11.37
2022-08-16T23:11:21.136Z,4.73
2022-08-16T23:13:54.945Z,4.77
2022-08-16T23:16:32.458Z,5.33
2022-08-16T23:19:03.658Z,7.63
2022-08-16T23:21:33.075Z,4.93
2022-08-16T23:24:03.452Z,11.50
2022-08-16T23:26:46.653Z,10.10
2022-08-16T23:29:24.832Z,5.47
2022-08-16T23:32:10.117Z,5.20
2022-08-16T23:34:38.985Z,7.40
2022-08-16T23:37:08.625Z,7.30
2022-08-16T23:39:38.540Z,10.00
2022-08-16T23:42:14.563Z,9.33
2022-08-16T23:44:58.591Z,6.20
2022-08-16T23:47:28.485Z,8.20
2022-08-16T23:50:03.479Z,7.23
2022-08-16T23:52:45.191Z,7.30
2022-08-16T23:55:27.493Z,8.90
2022-08-16T23:57:57.535Z,7.00
